sensor_id;sensor_type;location;lat;lon;timestamp;P1;durP1;ratioP1;P2;durP2;ratioP2
57571;SDS011;44459;43.522;24.470;2022-11-12T00:01:10;0.00;;;0.00;;
57571;SDS011;44459;43.522;24.470;2022-11-12T00:03:35;0.98;;;0.50;;
57571;SDS011;44459;43.522;24.470;2022-11-12T00:06:01;0.00;;;0.00;;
57571;SDS011;44459;43.522;24.470;2022-11-12T00:08:26;1.63;;;1.55;;
57571;SDS011;44459;43.522;24.470;2022-11-12T00:10:52;0.00;;;0.00;;
57571;SDS011;44459;43.522;24.470;2022-11-12T00:13:17;0.10;;;0.10;;
57571;SDS011;44459;43.522;24.470;2022-11-12T00:15:43;0.00;;;0.00;;
57571;SDS011;44459;43.522;24.470;2022-11-12T00:18:10;0.00;;;0.00;;
57571;SDS011;44459;43.522;24.470;2022-11-12T00:20:35;0.08;;;0.08;;
57571;SDS011;44459;43.522;24.470;2022-11-12T00:23:01;0.00;;;0.00;;
57571;SDS011;44459;43.522;24.470;2022-11-12T00:25:26;0.00;;;0.00;;
57571;SDS011;44459;43.522;24.470;2022-11-12T00:27:52;0.00;;;0.00;;
57571;SDS011;44459;43.522;24.470;2022-11-12T00:30:18;0.10;;;0.10;;
57571;SDS011;44459;43.522;24.470;2022-11-12T00:32:43;0.90;;;0.90;;
57571;SDS011;44459;43.522;24.470;2022-11-12T00:35:09;0.00;;;0.00;;
57571;SDS011;44459;43.522;24.470;2022-11-12T00:37:36;0.25;;;0.25;;
57571;SDS011;44459;43.522;24.470;2022-11-12T00:40:01;0.00;;;0.00;;
57571;SDS011;44459;43.522;24.470;2022-11-12T00:42:27;0.00;;;0.00;;
57571;SDS011;44459;43.522;24.470;2022-11-12T00:44:52;0.00;;;0.00;;
57571;SDS011;44459;43.522;24.470;2022-11-12T00:47:18;0.00;;;0.00;;
57571;SDS011;44459;43.522;24.470;2022-11-12T00:49:43;0.00;;;0.00;;
57571;SDS011;44459;43.522;24.470;2022-11-12T00:52:09;0.03;;;0.03;;
57571;SDS011;44459;43.522;24.470;2022-11-12T00:54:34;0.00;;;0.00;;
57571;SDS011;44459;43.522;24.470;2022-11-12T00:56:59;0.00;;;0.00;;
57571;SDS011;44459;43.522;24.470;2022-11-12T00:59:25;0.00;;;0.00;;
57571;SDS011;44459;43.522;24.470;2022-11-12T01:01:50;0.20;;;0.20;;
57571;SDS011;44459;43.522;24.470;2022-11-12T01:04:16;0.05;;;0.05;;
57571;SDS011;44459;43.522;24.470;2022-11-12T01:06:41;0.90;;;0.90;;
57571;SDS011;44459;43.522;24.470;2022-11-12T01:09:07;0.00;;;0.00;;
57571;SDS011;44459;43.522;24.470;2022-11-12T01:11:33;0.10;;;0.10;;
57571;SDS011;44459;43.522;24.470;2022-11-12T01:14:04;0.00;;;0.00;;
57571;SDS011;44459;43.522;24.470;2022-11-12T01:16:33;0.00;;;0.00;;
57571;SDS011;44459;43.522;24.470;2022-11-12T01:19:01;0.10;;;0.10;;
57571;SDS011;44459;43.522;24.470;2022-11-12T01:21:28;0.00;;;0.00;;
57571;SDS011;44459;43.522;24.470;2022-11-12T01:23:58;0.10;;;0.10;;
57571;SDS011;44459;43.522;24.470;2022-11-12T01:26:25;0.00;;;0.00;;
57571;SDS011;44459;43.522;24.470;2022-11-12T01:28:54;2.78;;;2.67;;
57571;SDS011;44459;43.522;24.470;2022-11-12T01:31:22;0.00;;;0.00;;
57571;SDS011;44459;43.522;24.470;2022-11-12T01:33:54;0.00;;;0.00;;
57571;SDS011;44459;43.522;24.470;2022-11-12T01:36:22;0.00;;;0.00;;
57571;SDS011;44459;43.522;24.470;2022-11-12T01:38:48;0.08;;;0.08;;
57571;SDS011;44459;43.522;24.470;2022-11-12T01:41:17;0.10;;;0.10;;
57571;SDS011;44459;43.522;24.470;2022-11-12T01:46:20;0.38;;;0.38;;
57571;SDS011;44459;43.522;24.470;2022-11-12T01:48:51;0.10;;;0.10;;
57571;SDS011;44459;43.522;24.470;2022-11-12T01:51:20;0.03;;;0.03;;
57571;SDS011;44459;43.522;24.470;2022-11-12T01:53:50;0.10;;;0.10;;
57571;SDS011;44459;43.522;24.470;2022-11-12T01:56:21;0.00;;;0.00;;
57571;SDS011;44459;43.522;24.470;2022-11-12T01:58:48;0.10;;;0.10;;
57571;SDS011;44459;43.522;24.470;2022-11-12T02:01:19;0.00;;;0.00;;
57571;SDS011;44459;43.522;24.470;2022-11-12T02:03:45;0.00;;;0.00;;
57571;SDS011;44459;43.522;24.470;2022-11-12T02:06:11;0.00;;;0.00;;
57571;SDS011;44459;43.522;24.470;2022-11-12T02:08:39;0.00;;;0.00;;
57571;SDS011;44459;43.522;24.470;2022-11-12T02:11:13;0.28;;;0.28;;
57571;SDS011;44459;43.522;24.470;2022-11-12T02:13:40;0.00;;;0.00;;
57571;SDS011;44459;43.522;24.470;2022-11-12T02:16:26;0.00;;;0.00;;
57571;SDS011;44459;43.522;24.470;2022-11-12T02:18:55;0.10;;;0.10;;
57571;SDS011;44459;43.522;24.470;2022-11-12T02:21:21;0.00;;;0.00;;
57571;SDS011;44459;43.522;24.470;2022-11-12T02:26:24;0.10;;;0.10;;
57571;SDS011;44459;43.522;24.470;2022-11-12T02:28:52;2.45;;;2.35;;
57571;SDS011;44459;43.522;24.470;2022-11-12T02:31:17;0.00;;;0.00;;
57571;SDS011;44459;43.522;24.470;2022-11-12T02:33:43;0.00;;;0.00;;
57571;SDS011;44459;43.522;24.470;2022-11-12T02:36:08;0.10;;;0.10;;
57571;SDS011;44459;43.522;24.470;2022-11-12T02:38:34;0.00;;;0.00;;
57571;SDS011;44459;43.522;24.470;2022-11-12T02:40:59;0.00;;;0.00;;
57571;SDS011;44459;43.522;24.470;2022-11-12T02:43:25;0.20;;;0.20;;
57571;SDS011;44459;43.522;24.470;2022-11-12T02:45:50;0.10;;;0.10;;
57571;SDS011;44459;43.522;24.470;2022-11-12T02:48:15;0.10;;;0.10;;
57571;SDS011;44459;43.522;24.470;2022-11-12T02:50:41;0.00;;;0.00;;
57571;SDS011;44459;43.522;24.470;2022-11-12T02:53:06;0.00;;;0.00;;
57571;SDS011;44459;43.522;24.470;2022-11-12T02:55:32;0.00;;;0.00;;
57571;SDS011;44459;43.522;24.470;2022-11-12T02:57:57;0.00;;;0.00;;
57571;SDS011;44459;43.522;24.470;2022-11-12T03:00:23;0.00;;;0.00;;
57571;SDS011;44459;43.522;24.470;2022-11-12T03:02:49;0.00;;;0.00;;
57571;SDS011;44459;43.522;24.470;2022-11-12T03:05:27;0.10;;;0.10;;
57571;SDS011;44459;43.522;24.470;2022-11-12T03:07:55;0.00;;;0.00;;
57571;SDS011;44459;43.522;24.470;2022-11-12T03:10:22;0.20;;;0.20;;
57571;SDS011;44459;43.522;24.470;2022-11-12T03:12:48;0.10;;;0.10;;
57571;SDS011;44459;43.522;24.470;2022-11-12T03:15:13;0.10;;;0.10;;
57571;SDS011;44459;43.522;24.470;2022-11-12T03:17:41;0.00;;;0.00;;
57571;SDS011;44459;43.522;24.470;2022-11-12T03:20:07;0.10;;;0.10;;
57571;SDS011;44459;43.522;24.470;2022-11-12T03:22:33;0.00;;;0.00;;
57571;SDS011;44459;43.522;24.470;2022-11-12T03:24:59;0.10;;;0.10;;
57571;SDS011;44459;43.522;24.470;2022-11-12T03:27:24;0.10;;;0.10;;
57571;SDS011;44459;43.522;24.470;2022-11-12T03:29:50;0.10;;;0.10;;
57571;SDS011;44459;43.522;24.470;2022-11-12T03:32:15;0.00;;;0.00;;
57571;SDS011;44459;43.522;24.470;2022-11-12T03:34:40;0.00;;;0.00;;
57571;SDS011;44459;43.522;24.470;2022-11-12T03:37:06;0.10;;;0.10;;
57571;SDS011;44459;43.522;24.470;2022-11-12T03:39:33;0.00;;;0.00;;
57571;SDS011;44459;43.522;24.470;2022-11-12T03:41:59;0.10;;;0.10;;
57571;SDS011;44459;43.522;24.470;2022-11-12T03:44:24;0.10;;;0.10;;
57571;SDS011;44459;43.522;24.470;2022-11-12T03:46:50;0.00;;;0.00;;
57571;SDS011;44459;43.522;24.470;2022-11-12T03:49:15;0.10;;;0.10;;
57571;SDS011;44459;43.522;24.470;2022-11-12T03:51:41;0.10;;;0.10;;
57571;SDS011;44459;43.522;24.470;2022-11-12T03:54:06;0.10;;;0.10;;
57571;SDS011;44459;43.522;24.470;2022-11-12T03:56:32;0.00;;;0.00;;
57571;SDS011;44459;43.522;24.470;2022-11-12T03:58:57;0.00;;;0.00;;
57571;SDS011;44459;43.522;24.470;2022-11-12T04:01:22;0.00;;;0.00;;
57571;SDS011;44459;43.522;24.470;2022-11-12T04:03:48;0.40;;;0.40;;
57571;SDS011;44459;43.522;24.470;2022-11-12T04:06:14;0.00;;;0.00;;
57571;SDS011;44459;43.522;24.470;2022-11-12T04:08:58;2.72;;;2.50;;
57571;SDS011;44459;43.522;24.470;2022-11-12T04:11:24;0.20;;;0.20;;
57571;SDS011;44459;43.522;24.470;2022-11-12T04:13:49;5.47;;;5.28;;
57571;SDS011;44459;43.522;24.470;2022-11-12T04:16:16;1.73;;;1.65;;
57571;SDS011;44459;43.522;24.470;2022-11-12T04:19:02;2.50;;;2.40;;
57571;SDS011;44459;43.522;24.470;2022-11-12T04:21:49;0.08;;;0.08;;
57571;SDS011;44459;43.522;24.470;2022-11-12T04:27:03;0.00;;;0.00;;
57571;SDS011;44459;43.522;24.470;2022-11-12T04:29:29;0.00;;;0.00;;
57571;SDS011;44459;43.522;24.470;2022-11-12T04:32:13;0.40;;;0.40;;
57571;SDS011;44459;43.522;24.470;2022-11-12T04:34:39;0.45;;;0.45;;
57571;SDS011;44459;43.522;24.470;2022-11-12T04:37:04;0.00;;;0.00;;
57571;SDS011;44459;43.522;24.470;2022-11-12T04:39:30;0.00;;;0.00;;
57571;SDS011;44459;43.522;24.470;2022-11-12T04:41:56;0.00;;;0.00;;
57571;SDS011;44459;43.522;24.470;2022-11-12T04:44:40;0.10;;;0.10;;
57571;SDS011;44459;43.522;24.470;2022-11-12T04:47:25;1.23;;;1.20;;
57571;SDS011;44459;43.522;24.470;2022-11-12T04:49:52;4.80;;;0.50;;
57571;SDS011;44459;43.522;24.470;2022-11-12T04:52:18;0.00;;;0.00;;
57571;SDS011;44459;43.522;24.470;2022-11-12T04:54:43;0.00;;;0.00;;
57571;SDS011;44459;43.522;24.470;2022-11-12T04:57:09;0.00;;;0.00;;
57571;SDS011;44459;43.522;24.470;2022-11-12T04:59:34;0.10;;;0.10;;
57571;SDS011;44459;43.522;24.470;2022-11-12T05:02:00;0.00;;;0.00;;
57571;SDS011;44459;43.522;24.470;2022-11-12T05:04:25;1.65;;;1.55;;
57571;SDS011;44459;43.522;24.470;2022-11-12T05:06:54;0.00;;;0.00;;
57571;SDS011;44459;43.522;24.470;2022-11-12T05:09:21;0.00;;;0.00;;
57571;SDS011;44459;43.522;24.470;2022-11-12T05:11:48;0.00;;;0.00;;
57571;SDS011;44459;43.522;24.470;2022-11-12T05:14:14;0.63;;;0.63;;
57571;SDS011;44459;43.522;24.470;2022-11-12T05:16:40;0.00;;;0.00;;
57571;SDS011;44459;43.522;24.470;2022-11-12T05:19:07;0.10;;;0.10;;
57571;SDS011;44459;43.522;24.470;2022-11-12T05:21:33;0.00;;;0.00;;
57571;SDS011;44459;43.522;24.470;2022-11-12T05:24:17;0.00;;;0.00;;
57571;SDS011;44459;43.522;24.470;2022-11-12T05:26:42;0.00;;;0.00;;
57571;SDS011;44459;43.522;24.470;2022-11-12T05:29:08;0.10;;;0.10;;
57571;SDS011;44459;43.522;24.470;2022-11-12T05:31:33;1.48;;;1.48;;
57571;SDS011;44459;43.522;24.470;2022-11-12T05:33:59;0.10;;;0.10;;
57571;SDS011;44459;43.522;24.470;2022-11-12T05:36:25;0.70;;;0.63;;
57571;SDS011;44459;43.522;24.470;2022-11-12T05:38:50;0.10;;;0.10;;
57571;SDS011;44459;43.522;24.470;2022-11-12T05:41:15;0.10;;;0.10;;
57571;SDS011;44459;43.522;24.470;2022-11-12T05:43:41;0.00;;;0.00;;
57571;SDS011;44459;43.522;24.470;2022-11-12T05:46:07;0.00;;;0.00;;
57571;SDS011;44459;43.522;24.470;2022-11-12T05:48:32;0.05;;;0.05;;
57571;SDS011;44459;43.522;24.470;2022-11-12T05:50:57;0.10;;;0.10;;
57571;SDS011;44459;43.522;24.470;2022-11-12T05:53:23;0.00;;;0.00;;
57571;SDS011;44459;43.522;24.470;2022-11-12T05:55:48;0.00;;;0.00;;
57571;SDS011;44459;43.522;24.470;2022-11-12T05:58:16;7.82;;;5.50;;
57571;SDS011;44459;43.522;24.470;2022-11-12T06:00:41;1.25;;;1.17;;
57571;SDS011;44459;43.522;24.470;2022-11-12T06:03:07;0.20;;;0.20;;
57571;SDS011;44459;43.522;24.470;2022-11-12T06:05:34;0.00;;;0.00;;
57571;SDS011;44459;43.522;24.470;2022-11-12T06:07:59;0.10;;;0.10;;
57571;SDS011;44459;43.522;24.470;2022-11-12T06:10:25;0.00;;;0.00;;
57571;SDS011;44459;43.522;24.470;2022-11-12T06:12:51;0.00;;;0.00;;
57571;SDS011;44459;43.522;24.470;2022-11-12T06:15:17;0.00;;;0.00;;
57571;SDS011;44459;43.522;24.470;2022-11-12T06:17:43;0.00;;;0.00;;
57571;SDS011;44459;43.522;24.470;2022-11-12T06:20:09;0.00;;;0.00;;
57571;SDS011;44459;43.522;24.470;2022-11-12T06:22:35;0.00;;;0.00;;
57571;SDS011;44459;43.522;24.470;2022-11-12T06:25:01;0.00;;;0.00;;
57571;SDS011;44459;43.522;24.470;2022-11-12T06:27:27;0.00;;;0.00;;
57571;SDS011;44459;43.522;24.470;2022-11-12T06:29:52;0.00;;;0.00;;
57571;SDS011;44459;43.522;24.470;2022-11-12T06:32:18;0.10;;;0.10;;
57571;SDS011;44459;43.522;24.470;2022-11-12T06:34:43;0.00;;;0.00;;
57571;SDS011;44459;43.522;24.470;2022-11-12T06:37:09;0.00;;;0.00;;
57571;SDS011;44459;43.522;24.470;2022-11-12T06:39:34;0.00;;;0.00;;
57571;SDS011;44459;43.522;24.470;2022-11-12T06:41:59;0.00;;;0.00;;
57571;SDS011;44459;43.522;24.470;2022-11-12T06:44:26;0.00;;;0.00;;
57571;SDS011;44459;43.522;24.470;2022-11-12T06:46:51;0.00;;;0.00;;
57571;SDS011;44459;43.522;24.470;2022-11-12T06:49:17;0.00;;;0.00;;
57571;SDS011;44459;43.522;24.470;2022-11-12T06:51:42;0.00;;;0.00;;
57571;SDS011;44459;43.522;24.470;2022-11-12T06:54:08;0.10;;;0.10;;
57571;SDS011;44459;43.522;24.470;2022-11-12T06:56:33;0.10;;;0.10;;
57571;SDS011;44459;43.522;24.470;2022-11-12T06:58:58;0.00;;;0.00;;
57571;SDS011;44459;43.522;24.470;2022-11-12T07:01:24;0.08;;;0.08;;
57571;SDS011;44459;43.522;24.470;2022-11-12T07:03:50;0.10;;;0.10;;
57571;SDS011;44459;43.522;24.470;2022-11-12T07:06:16;0.25;;;0.25;;
57571;SDS011;44459;43.522;24.470;2022-11-12T07:08:44;1.02;;;1.02;;
57571;SDS011;44459;43.522;24.470;2022-11-12T07:11:16;1.20;;;1.20;;
57571;SDS011;44459;43.522;24.470;2022-11-12T07:13:43;1.75;;;1.65;;
57571;SDS011;44459;43.522;24.470;2022-11-12T07:16:09;0.08;;;0.08;;
57571;SDS011;44459;43.522;24.470;2022-11-12T07:18:35;0.63;;;0.63;;
57571;SDS011;44459;43.522;24.470;2022-11-12T07:21:06;2.65;;;2.53;;
57571;SDS011;44459;43.522;24.470;2022-11-12T07:23:33;1.38;;;0.63;;
57571;SDS011;44459;43.522;24.470;2022-11-12T07:26:01;0.30;;;0.30;;
57571;SDS011;44459;43.522;24.470;2022-11-12T07:28:28;0.80;;;0.80;;
57571;SDS011;44459;43.522;24.470;2022-11-12T07:30:55;0.63;;;0.63;;
57571;SDS011;44459;43.522;24.470;2022-11-12T07:33:21;0.57;;;0.57;;
57571;SDS011;44459;43.522;24.470;2022-11-12T07:35:46;0.75;;;0.50;;
57571;SDS011;44459;43.522;24.470;2022-11-12T07:38:12;0.05;;;0.05;;
57571;SDS011;44459;43.522;24.470;2022-11-12T07:40:37;0.73;;;0.73;;
57571;SDS011;44459;43.522;24.470;2022-11-12T07:43:02;0.80;;;0.80;;
57571;SDS011;44459;43.522;24.470;2022-11-12T07:45:28;0.10;;;0.10;;
57571;SDS011;44459;43.522;24.470;2022-11-12T07:47:53;2.70;;;2.60;;
57571;SDS011;44459;43.522;24.470;2022-11-12T07:50:19;4.95;;;2.30;;
57571;SDS011;44459;43.522;24.470;2022-11-12T07:52:44;1.85;;;1.75;;
57571;SDS011;44459;43.522;24.470;2022-11-12T07:55:09;0.10;;;0.10;;
57571;SDS011;44459;43.522;24.470;2022-11-12T07:57:35;1.27;;;1.17;;
57571;SDS011;44459;43.522;24.470;2022-11-12T08:00:00;0.00;;;0.00;;
57571;SDS011;44459;43.522;24.470;2022-11-12T08:02:26;5.05;;;2.60;;
57571;SDS011;44459;43.522;24.470;2022-11-12T08:04:51;0.65;;;0.47;;
57571;SDS011;44459;43.522;24.470;2022-11-12T08:07:17;4.47;;;2.67;;
57571;SDS011;44459;43.522;24.470;2022-11-12T08:09:43;1.38;;;1.35;;
57571;SDS011;44459;43.522;24.470;2022-11-12T08:12:08;6.63;;;5.00;;
57571;SDS011;44459;43.522;24.470;2022-11-12T08:14:33;0.10;;;0.10;;
57571;SDS011;44459;43.522;24.470;2022-11-12T08:16:59;9.77;;;3.85;;
57571;SDS011;44459;43.522;24.470;2022-11-12T08:19:24;1.63;;;1.52;;
57571;SDS011;44459;43.522;24.470;2022-11-12T08:21:50;6.97;;;6.10;;
57571;SDS011;44459;43.522;24.470;2022-11-12T08:24:15;3.15;;;1.92;;
57571;SDS011;44459;43.522;24.470;2022-11-12T08:26:41;3.45;;;3.13;;
57571;SDS011;44459;43.522;24.470;2022-11-12T08:29:06;0.47;;;0.47;;
57571;SDS011;44459;43.522;24.470;2022-11-12T08:31:32;2.05;;;1.95;;
57571;SDS011;44459;43.522;24.470;2022-11-12T08:33:57;8.45;;;5.47;;
57571;SDS011;44459;43.522;24.470;2022-11-12T08:36:22;1.15;;;1.15;;
57571;SDS011;44459;43.522;24.470;2022-11-12T08:38:50;10.25;;;4.40;;
57571;SDS011;44459;43.522;24.470;2022-11-12T08:41:17;9.23;;;6.03;;
57571;SDS011;44459;43.522;24.470;2022-11-12T08:43:42;3.58;;;3.25;;
57571;SDS011;44459;43.522;24.470;2022-11-12T08:46:08;11.20;;;6.85;;
57571;SDS011;44459;43.522;24.470;2022-11-12T08:48:34;1.52;;;1.42;;
57571;SDS011;44459;43.522;24.470;2022-11-12T08:51:03;0.95;;;0.95;;
57571;SDS011;44459;43.522;24.470;2022-11-12T08:53:29;9.32;;;6.00;;
57571;SDS011;44459;43.522;24.470;2022-11-12T08:55:55;4.38;;;3.40;;
57571;SDS011;44459;43.522;24.470;2022-11-12T08:58:21;6.47;;;4.38;;
57571;SDS011;44459;43.522;24.470;2022-11-12T09:00:48;6.32;;;4.07;;
57571;SDS011;44459;43.522;24.470;2022-11-12T09:03:18;12.98;;;6.72;;
57571;SDS011;44459;43.522;24.470;2022-11-12T09:05:46;1.90;;;1.77;;
57571;SDS011;44459;43.522;24.470;2022-11-12T09:08:13;17.75;;;9.35;;
57571;SDS011;44459;43.522;24.470;2022-11-12T09:10:43;7.05;;;5.50;;
57571;SDS011;44459;43.522;24.470;2022-11-12T09:13:09;13.13;;;7.57;;
57571;SDS011;44459;43.522;24.470;2022-11-12T09:15:35;4.57;;;2.72;;
57571;SDS011;44459;43.522;24.470;2022-11-12T09:18:01;2.88;;;2.63;;
57571;SDS011;44459;43.522;24.470;2022-11-12T09:20:28;1.63;;;1.55;;
57571;SDS011;44459;43.522;24.470;2022-11-12T09:22:59;10.38;;;6.53;;
57571;SDS011;44459;43.522;24.470;2022-11-12T09:25:26;0.15;;;0.15;;
57571;SDS011;44459;43.522;24.470;2022-11-12T09:27:51;2.00;;;1.90;;
57571;SDS011;44459;43.522;24.470;2022-11-12T09:30:17;2.80;;;2.00;;
57571;SDS011;44459;43.522;24.470;2022-11-12T09:32:43;4.82;;;3.97;;
57571;SDS011;44459;43.522;24.470;2022-11-12T09:35:08;12.40;;;6.75;;
57571;SDS011;44459;43.522;24.470;2022-11-12T09:37:35;4.07;;;3.70;;
57571;SDS011;44459;43.522;24.470;2022-11-12T09:40:01;7.43;;;5.15;;
57571;SDS011;44459;43.522;24.470;2022-11-12T09:42:27;5.57;;;4.53;;
57571;SDS011;44459;43.522;24.470;2022-11-12T09:44:55;6.18;;;4.93;;
57571;SDS011;44459;43.522;24.470;2022-11-12T09:50:14;16.27;;;10.93;;
57571;SDS011;44459;43.522;24.470;2022-11-12T09:52:59;5.85;;;5.25;;
57571;SDS011;44459;43.522;24.470;2022-11-12T09:55:41;6.00;;;5.20;;
57571;SDS011;44459;43.522;24.470;2022-11-12T09:58:12;5.88;;;4.05;;
57571;SDS011;44459;43.522;24.470;2022-11-12T10:00:50;37.88;;;23.77;;
57571;SDS011;44459;43.522;24.470;2022-11-12T10:03:26;48.97;;;29.83;;
57571;SDS011;44459;43.522;24.470;2022-11-12T10:06:15;27.05;;;16.42;;
57571;SDS011;44459;43.522;24.470;2022-11-12T10:09:10;31.17;;;18.92;;
57571;SDS011;44459;43.522;24.470;2022-11-12T10:17:50;26.63;;;16.38;;
57571;SDS011;44459;43.522;24.470;2022-11-12T10:20:47;19.77;;;12.68;;
57571;SDS011;44459;43.522;24.470;2022-11-12T10:23:24;12.10;;;10.52;;
57571;SDS011;44459;43.522;24.470;2022-11-12T10:25:55;18.38;;;12.10;;
57571;SDS011;44459;43.522;24.470;2022-11-12T10:28:29;1.92;;;1.75;;
57571;SDS011;44459;43.522;24.470;2022-11-12T10:31:00;1.10;;;1.10;;
57571;SDS011;44459;43.522;24.470;2022-11-12T10:33:31;13.60;;;7.93;;
57571;SDS011;44459;43.522;24.470;2022-11-12T10:38:47;1.42;;;1.35;;
57571;SDS011;44459;43.522;24.470;2022-11-12T10:44:01;24.08;;;9.63;;
57571;SDS011;44459;43.522;24.470;2022-11-12T10:48:59;4.93;;;3.47;;
57571;SDS011;44459;43.522;24.470;2022-11-12T10:51:53;2.17;;;1.80;;
57571;SDS011;44459;43.522;24.470;2022-11-12T10:54:25;0.70;;;0.70;;
57571;SDS011;44459;43.522;24.470;2022-11-12T10:57:09;13.80;;;5.68;;
57571;SDS011;44459;43.522;24.470;2022-11-12T10:59:44;1.35;;;1.35;;
57571;SDS011;44459;43.522;24.470;2022-11-12T11:02:16;3.45;;;2.85;;
57571;SDS011;44459;43.522;24.470;2022-11-12T11:04:43;4.38;;;3.13;;
57571;SDS011;44459;43.522;24.470;2022-11-12T11:07:17;8.88;;;5.68;;
57571;SDS011;44459;43.522;24.470;2022-11-12T11:09:56;2.30;;;2.00;;
57571;SDS011;44459;43.522;24.470;2022-11-12T11:12:25;2.20;;;1.42;;
57571;SDS011;44459;43.522;24.470;2022-11-12T11:15:17;4.47;;;2.80;;
57571;SDS011;44459;43.522;24.470;2022-11-12T11:17:44;0.05;;;0.05;;
57571;SDS011;44459;43.522;24.470;2022-11-12T11:23:06;8.40;;;4.45;;
57571;SDS011;44459;43.522;24.470;2022-11-12T11:25:32;6.07;;;4.25;;
57571;SDS011;44459;43.522;24.470;2022-11-12T11:30:36;1.08;;;1.02;;
57571;SDS011;44459;43.522;24.470;2022-11-12T11:38:57;17.05;;;8.68;;
57571;SDS011;44459;43.522;24.470;2022-11-12T11:41:31;10.55;;;4.53;;
57571;SDS011;44459;43.522;24.470;2022-11-12T11:44:05;5.60;;;1.88;;
57571;SDS011;44459;43.522;24.470;2022-11-12T11:46:54;2.92;;;2.72;;
57571;SDS011;44459;43.522;24.470;2022-11-12T11:57:42;9.82;;;6.45;;
57571;SDS011;44459;43.522;24.470;2022-11-12T12:00:19;7.40;;;2.35;;
57571;SDS011;44459;43.522;24.470;2022-11-12T12:13:51;10.25;;;3.55;;
57571;SDS011;44459;43.522;24.470;2022-11-12T12:16:33;2.00;;;1.67;;
57571;SDS011;44459;43.522;24.470;2022-11-12T12:22:17;1.98;;;1.88;;
57571;SDS011;44459;43.522;24.470;2022-11-12T12:24:55;4.40;;;3.40;;
57571;SDS011;44459;43.522;24.470;2022-11-12T12:27:28;0.40;;;0.40;;
57571;SDS011;44459;43.522;24.470;2022-11-12T12:30:06;0.43;;;0.43;;
57571;SDS011;44459;43.522;24.470;2022-11-12T12:32:43;4.85;;;2.58;;
57571;SDS011;44459;43.522;24.470;2022-11-12T12:35:19;7.85;;;4.80;;
57571;SDS011;44459;43.522;24.470;2022-11-12T12:40:53;2.83;;;0.80;;
57571;SDS011;44459;43.522;24.470;2022-11-12T12:43:34;3.35;;;2.83;;
57571;SDS011;44459;43.522;24.470;2022-11-12T12:46:00;8.13;;;4.70;;
57571;SDS011;44459;43.522;24.470;2022-11-12T12:48:29;11.90;;;6.88;;
57571;SDS011;44459;43.522;24.470;2022-11-12T12:50:55;9.05;;;4.97;;
57571;SDS011;44459;43.522;24.470;2022-11-12T12:55:52;11.73;;;6.38;;
57571;SDS011;44459;43.522;24.470;2022-11-12T13:00:52;4.30;;;3.05;;
57571;SDS011;44459;43.522;24.470;2022-11-12T13:06:08;1.95;;;1.85;;
57571;SDS011;44459;43.522;24.470;2022-11-12T13:08:40;12.23;;;7.10;;
57571;SDS011;44459;43.522;24.470;2022-11-12T13:11:06;2.50;;;2.10;;
57571;SDS011;44459;43.522;24.470;2022-11-12T13:13:33;2.20;;;1.77;;
57571;SDS011;44459;43.522;24.470;2022-11-12T13:16:00;12.25;;;4.30;;
57571;SDS011;44459;43.522;24.470;2022-11-12T13:31:48;11.75;;;6.18;;
57571;SDS011;44459;43.522;24.470;2022-11-12T13:34:34;6.00;;;3.30;;
57571;SDS011;44459;43.522;24.470;2022-11-12T13:37:00;14.88;;;6.03;;
57571;SDS011;44459;43.522;24.470;2022-11-12T13:39:30;4.40;;;4.00;;
57571;SDS011;44459;43.522;24.470;2022-11-12T13:41:59;8.15;;;5.07;;
57571;SDS011;44459;43.522;24.470;2022-11-12T13:44:53;14.93;;;10.45;;
57571;SDS011;44459;43.522;24.470;2022-11-12T13:47:20;2.42;;;2.25;;
57571;SDS011;44459;43.522;24.470;2022-11-12T13:49:48;8.90;;;5.18;;
57571;SDS011;44459;43.522;24.470;2022-11-12T13:52:14;11.48;;;4.03;;
57571;SDS011;44459;43.522;24.470;2022-11-12T13:54:42;13.88;;;5.70;;
57571;SDS011;44459;43.522;24.470;2022-11-12T13:59:48;4.40;;;2.92;;
57571;SDS011;44459;43.522;24.470;2022-11-12T14:02:32;10.52;;;3.30;;
57571;SDS011;44459;43.522;24.470;2022-11-12T14:05:00;3.75;;;3.45;;
57571;SDS011;44459;43.522;24.470;2022-11-12T14:12:50;3.53;;;1.83;;
57571;SDS011;44459;43.522;24.470;2022-11-12T14:18:25;5.57;;;3.95;;
57571;SDS011;44459;43.522;24.470;2022-11-12T14:21:16;1.15;;;1.15;;
57571;SDS011;44459;43.522;24.470;2022-11-12T14:26:12;3.30;;;2.80;;
57571;SDS011;44459;43.522;24.470;2022-11-12T14:28:56;3.17;;;2.60;;
57571;SDS011;44459;43.522;24.470;2022-11-12T14:31:23;2.33;;;2.17;;
57571;SDS011;44459;43.522;24.470;2022-11-12T14:33:49;10.40;;;5.15;;
57571;SDS011;44459;43.522;24.470;2022-11-12T14:36:15;5.63;;;1.60;;
57571;SDS011;44459;43.522;24.470;2022-11-12T14:41:21;9.80;;;6.85;;
57571;SDS011;44459;43.522;24.470;2022-11-12T14:43:56;4.18;;;3.45;;
57571;SDS011;44459;43.522;24.470;2022-11-12T14:49:20;11.10;;;8.98;;
57571;SDS011;44459;43.522;24.470;2022-11-12T14:51:52;0.68;;;0.68;;
57571;SDS011;44459;43.522;24.470;2022-11-12T14:54:28;5.67;;;3.60;;
57571;SDS011;44459;43.522;24.470;2022-11-12T14:56:58;16.73;;;10.55;;
57571;SDS011;44459;43.522;24.470;2022-11-12T14:59:26;22.27;;;10.27;;
57571;SDS011;44459;43.522;24.470;2022-11-12T15:04:37;9.02;;;3.58;;
57571;SDS011;44459;43.522;24.470;2022-11-12T15:07:20;5.70;;;3.60;;
57571;SDS011;44459;43.522;24.470;2022-11-12T15:10:26;3.45;;;2.15;;
57571;SDS011;44459;43.522;24.470;2022-11-12T15:18:16;5.15;;;2.95;;
57571;SDS011;44459;43.522;24.470;2022-11-12T15:20:44;1.95;;;1.80;;
57571;SDS011;44459;43.522;24.470;2022-11-12T15:23:16;0.73;;;0.73;;
57571;SDS011;44459;43.522;24.470;2022-11-12T15:25:43;4.60;;;3.75;;
57571;SDS011;44459;43.522;24.470;2022-11-12T15:28:12;2.60;;;2.28;;
57571;SDS011;44459;43.522;24.470;2022-11-12T15:30:58;4.40;;;2.40;;
57571;SDS011;44459;43.522;24.470;2022-11-12T15:33:31;2.67;;;2.45;;
57571;SDS011;44459;43.522;24.470;2022-11-12T15:35:57;5.13;;;3.22;;
57571;SDS011;44459;43.522;24.470;2022-11-12T15:38:34;0.10;;;0.10;;
57571;SDS011;44459;43.522;24.470;2022-11-12T15:41:02;28.77;;;14.63;;
57571;SDS011;44459;43.522;24.470;2022-11-12T15:43:28;2.47;;;0.80;;
57571;SDS011;44459;43.522;24.470;2022-11-12T15:45:59;7.90;;;5.53;;
57571;SDS011;44459;43.522;24.470;2022-11-12T15:48:25;46.20;;;25.60;;
57571;SDS011;44459;43.522;24.470;2022-11-12T15:50:51;53.70;;;18.13;;
57571;SDS011;44459;43.522;24.470;2022-11-12T15:53:16;25.63;;;21.63;;
57571;SDS011;44459;43.522;24.470;2022-11-12T15:55:42;4.57;;;4.28;;
57571;SDS011;44459;43.522;24.470;2022-11-12T15:58:14;0.00;;;0.00;;
57571;SDS011;44459;43.522;24.470;2022-11-12T16:00:59;13.48;;;9.13;;
57571;SDS011;44459;43.522;24.470;2022-11-12T16:03:24;6.60;;;6.22;;
57571;SDS011;44459;43.522;24.470;2022-11-12T16:05:50;2.05;;;1.95;;
57571;SDS011;44459;43.522;24.470;2022-11-12T16:08:16;1.27;;;1.27;;
57571;SDS011;44459;43.522;24.470;2022-11-12T16:10:42;0.17;;;0.17;;
57571;SDS011;44459;43.522;24.470;2022-11-12T16:13:19;0.00;;;0.00;;
57571;SDS011;44459;43.522;24.470;2022-11-12T16:15:51;0.65;;;0.65;;
57571;SDS011;44459;43.522;24.470;2022-11-12T16:18:17;0.00;;;0.00;;
57571;SDS011;44459;43.522;24.470;2022-11-12T16:20:42;0.00;;;0.00;;
57571;SDS011;44459;43.522;24.470;2022-11-12T16:23:09;0.63;;;0.63;;
57571;SDS011;44459;43.522;24.470;2022-11-12T16:25:36;0.03;;;0.03;;
57571;SDS011;44459;43.522;24.470;2022-11-12T16:28:02;0.00;;;0.00;;
57571;SDS011;44459;43.522;24.470;2022-11-12T16:30:32;0.00;;;0.00;;
57571;SDS011;44459;43.522;24.470;2022-11-12T16:32:58;0.00;;;0.00;;